Norfolk, Virginia
Traffic Map
Current Weather Conditions
Norfolk, Virginia
Clear
Clear
14°
Feels Like: 14°
Wind Chill: 14° Ceiling: Unl
Heat Index: 14° Visibility: 10mi
Dew Point: 11° Wind: 5mph
Humidity: 83% Direction: 150° (SSE)
Pressure: 30.21in Gusts: 0mph
Raw Report DataKORF 270151Z 15004KT 10SM CLR 14/11 A3021 RMK AO2 SLP229 T01390111
Traffic Incident Summary
Active as of:
Severity:
Category:
InformationThere was an issue retrieving the traffic information for this location. Please try a different location or try again shortly.
Advertisements
Track Severe Weather on mobile